Danbury, CT (06810)

2:54 PM EDT on July 26, 2016 (GMT -0400)
Gregory ST | | Change Station

Elev 621 ft 41.40 °N, 73.48 °W | Updated 3 seconds ago

Scattered Clouds
Scattered Clouds
86.2 °F
Feels Like 89 °F
N
0.0
Wind Variable Wind from West
Gusts 11.0 mph

Today
High -- | Low -- °F
--% Chance of Precip.
Yesterday
High -- | Low -- °F
Precip. -- in
Pressure 29.88 in
Visibility 10.0 miles
Clouds Scattered Clouds 5500 ft
Heat Index 89 °F
Dew Point 68 °F
Humidity 54%
Rainfall 0.00 in
Snow Depth Not available.
5:43 AM 8:16 PM
Waning Gibbous, 52% visible
METAR KDXR 261753Z 28009KT 10SM SCT055 30/17 A2989 RMK AO2 SLP118 T03000172 10300 20222 58006
Pressure 29.88 in
Visibility 10.0 miles
Clouds Scattered Clouds 5500 ft
Heat Index 89 °F
Dew Point 68 °F
Humidity 54%
Rainfall 0.00 in
Snow Depth Not available.
5:43 AM 8:16 PM
Waning Gibbous, 52% visible
METAR KDXR 261753Z 28009KT 10SM SCT055 30/17 A2989 RMK AO2 SLP118 T03000172 10300 20222 58006

10-Day Weather Forecast

Almanac

Astronomy

Jul. 26, 2016 Rise Set
Actual Time
Civil Twilight
Nautical Twilight
Astronomical Twilight
Moon
Length of Visible Light
Length of Day
Tomorrow will be .
, % of the Moon is Illuminated

Today's Extremes

State Highs State Lows

Community

WunderPhotos

Upload Photos

1,927,653 photos uploaded!

WunderBlog® & News

Nearby

Air Quality

  Air Quality AQ Index Pollutant
Not available.

Snow Depth

Station Depth Elevation

Earthquake Activity

City Distance Mag. Time & Date
Minimum magnitude displayed is 2.5.

Coastal Water Temperatures

Place Temperature

Stations

Nearby Weather Stations

Station Location Temp. Windchill Dew Point Humidity Wind Precip. Elev Updated Type
                   

Watches & Warnings

There are currently no watches in effect.